sensor_id;sensor_type;location;lat;lon;timestamp;P1;durP1;ratioP1;P2;durP2;ratioP2
77432;SDS011;66752;48.576;8.876;2023-05-15T00:00:43;11.25;;;6.57;;
77432;SDS011;66752;48.576;8.876;2023-05-15T00:03:09;8.80;;;5.88;;
77432;SDS011;66752;48.576;8.876;2023-05-15T00:10:27;8.40;;;5.90;;
77432;SDS011;66752;48.576;8.876;2023-05-15T00:12:53;8.43;;;5.25;;
77432;SDS011;66752;48.576;8.876;2023-05-15T00:15:19;8.25;;;4.68;;
77432;SDS011;66752;48.576;8.876;2023-05-15T00:17:45;9.23;;;5.13;;
77432;SDS011;66752;48.576;8.876;2023-05-15T00:20:11;13.57;;;5.55;;
77432;SDS011;66752;48.576;8.876;2023-05-15T00:22:37;9.20;;;5.05;;
77432;SDS011;66752;48.576;8.876;2023-05-15T00:25:04;8.38;;;4.88;;
77432;SDS011;66752;48.576;8.876;2023-05-15T00:27:30;8.27;;;4.90;;
77432;SDS011;66752;48.576;8.876;2023-05-15T00:29:56;11.00;;;5.80;;
77432;SDS011;66752;48.576;8.876;2023-05-15T00:32:22;16.65;;;6.05;;
77432;SDS011;66752;48.576;8.876;2023-05-15T00:34:47;12.48;;;6.72;;
77432;SDS011;66752;48.576;8.876;2023-05-15T00:37:13;14.38;;;7.28;;
77432;SDS011;66752;48.576;8.876;2023-05-15T00:39:40;25.15;;;9.30;;
77432;SDS011;66752;48.576;8.876;2023-05-15T00:42:06;13.40;;;7.53;;
77432;SDS011;66752;48.576;8.876;2023-05-15T00:44:32;15.43;;;7.55;;
77432;SDS011;66752;48.576;8.876;2023-05-15T00:46:59;27.15;;;8.80;;
77432;SDS011;66752;48.576;8.876;2023-05-15T00:49:25;26.65;;;7.20;;
77432;SDS011;66752;48.576;8.876;2023-05-15T00:51:53;23.40;;;6.47;;
77432;SDS011;66752;48.576;8.876;2023-05-15T00:54:19;25.15;;;8.13;;
77432;SDS011;66752;48.576;8.876;2023-05-15T00:59:17;54.65;;;8.45;;
77432;SDS011;66752;48.576;8.876;2023-05-15T01:01:43;20.25;;;6.45;;
77432;SDS011;66752;48.576;8.876;2023-05-15T01:04:09;21.42;;;6.75;;
77432;SDS011;66752;48.576;8.876;2023-05-15T01:06:35;16.85;;;6.25;;
77432;SDS011;66752;48.576;8.876;2023-05-15T01:09:01;10.40;;;6.13;;
77432;SDS011;66752;48.576;8.876;2023-05-15T01:11:30;8.73;;;5.63;;
77432;SDS011;66752;48.576;8.876;2023-05-15T01:14:04;14.60;;;6.13;;
77432;SDS011;66752;48.576;8.876;2023-05-15T01:16:31;15.52;;;7.53;;
77432;SDS011;66752;48.576;8.876;2023-05-15T01:18:57;10.15;;;6.78;;
77432;SDS011;66752;48.576;8.876;2023-05-15T01:21:26;19.35;;;6.32;;
77432;SDS011;66752;48.576;8.876;2023-05-15T01:26:52;12.43;;;5.95;;
77432;SDS011;66752;48.576;8.876;2023-05-15T01:29:22;21.98;;;5.85;;
77432;SDS011;66752;48.576;8.876;2023-05-15T01:31:49;8.93;;;5.93;;
77432;SDS011;66752;48.576;8.876;2023-05-15T01:34:18;19.77;;;5.50;;
77432;SDS011;66752;48.576;8.876;2023-05-15T01:36:50;16.65;;;6.32;;
77432;SDS011;66752;48.576;8.876;2023-05-15T01:39:19;13.73;;;5.47;;
77432;SDS011;66752;48.576;8.876;2023-05-15T01:41:51;12.07;;;4.72;;
77432;SDS011;66752;48.576;8.876;2023-05-15T01:44:26;9.30;;;5.10;;
77432;SDS011;66752;48.576;8.876;2023-05-15T01:46:54;9.23;;;4.93;;
77432;SDS011;66752;48.576;8.876;2023-05-15T01:49:21;10.23;;;5.35;;
77432;SDS011;66752;48.576;8.876;2023-05-15T01:51:49;10.13;;;5.32;;
77432;SDS011;66752;48.576;8.876;2023-05-15T01:54:15;8.95;;;4.97;;
77432;SDS011;66752;48.576;8.876;2023-05-15T01:56:42;8.13;;;4.72;;
77432;SDS011;66752;48.576;8.876;2023-05-15T02:04:01;7.40;;;4.13;;
77432;SDS011;66752;48.576;8.876;2023-05-15T02:06:28;11.30;;;5.78;;
77432;SDS011;66752;48.576;8.876;2023-05-15T02:08:56;9.35;;;5.43;;
77432;SDS011;66752;48.576;8.876;2023-05-15T02:11:22;9.32;;;5.68;;
77432;SDS011;66752;48.576;8.876;2023-05-15T02:13:48;9.48;;;5.95;;
77432;SDS011;66752;48.576;8.876;2023-05-15T02:16:15;9.10;;;5.22;;
77432;SDS011;66752;48.576;8.876;2023-05-15T02:18:41;10.18;;;5.47;;
77432;SDS011;66752;48.576;8.876;2023-05-15T02:21:07;8.40;;;5.07;;
77432;SDS011;66752;48.576;8.876;2023-05-15T02:23:33;9.23;;;5.47;;
77432;SDS011;66752;48.576;8.876;2023-05-15T02:26:02;9.45;;;5.68;;
77432;SDS011;66752;48.576;8.876;2023-05-15T02:28:40;8.88;;;5.28;;
77432;SDS011;66752;48.576;8.876;2023-05-15T02:31:13;9.00;;;5.70;;
77432;SDS011;66752;48.576;8.876;2023-05-15T02:33:44;8.65;;;5.78;;
77432;SDS011;66752;48.576;8.876;2023-05-15T02:36:14;8.02;;;4.90;;
77432;SDS011;66752;48.576;8.876;2023-05-15T02:38:46;7.85;;;5.13;;
77432;SDS011;66752;48.576;8.876;2023-05-15T02:41:13;7.70;;;4.88;;
77432;SDS011;66752;48.576;8.876;2023-05-15T02:48:32;9.27;;;5.72;;
77432;SDS011;66752;48.576;8.876;2023-05-15T02:50:58;8.05;;;5.65;;
77432;SDS011;66752;48.576;8.876;2023-05-15T02:53:24;8.18;;;5.07;;
77432;SDS011;66752;48.576;8.876;2023-05-15T02:55:50;16.30;;;5.97;;
77432;SDS011;66752;48.576;8.876;2023-05-15T02:58:16;8.55;;;5.78;;
77432;SDS011;66752;48.576;8.876;2023-05-15T03:00:42;9.52;;;5.60;;
77432;SDS011;66752;48.576;8.876;2023-05-15T03:03:08;9.38;;;5.50;;
77432;SDS011;66752;48.576;8.876;2023-05-15T03:05:34;9.30;;;5.65;;
77432;SDS011;66752;48.576;8.876;2023-05-15T03:08:00;9.85;;;5.88;;
77432;SDS011;66752;48.576;8.876;2023-05-15T03:10:26;8.23;;;5.40;;
77432;SDS011;66752;48.576;8.876;2023-05-15T03:12:53;8.95;;;5.22;;
77432;SDS011;66752;48.576;8.876;2023-05-15T03:15:22;10.00;;;6.78;;
77432;SDS011;66752;48.576;8.876;2023-05-15T03:17:48;9.63;;;5.90;;
77432;SDS011;66752;48.576;8.876;2023-05-15T03:20:14;8.68;;;5.68;;
77432;SDS011;66752;48.576;8.876;2023-05-15T03:22:40;10.65;;;6.70;;
77432;SDS011;66752;48.576;8.876;2023-05-15T03:25:07;10.30;;;6.57;;
77432;SDS011;66752;48.576;8.876;2023-05-15T03:27:33;13.77;;;7.70;;
77432;SDS011;66752;48.576;8.876;2023-05-15T03:29:59;12.48;;;7.95;;
77432;SDS011;66752;48.576;8.876;2023-05-15T03:32:25;10.43;;;6.63;;
77432;SDS011;66752;48.576;8.876;2023-05-15T03:34:51;10.48;;;6.63;;
77432;SDS011;66752;48.576;8.876;2023-05-15T03:37:17;10.57;;;6.93;;
77432;SDS011;66752;48.576;8.876;2023-05-15T03:39:43;11.15;;;7.20;;
77432;SDS011;66752;48.576;8.876;2023-05-15T03:42:09;9.40;;;6.45;;
77432;SDS011;66752;48.576;8.876;2023-05-15T03:44:35;11.00;;;6.43;;
77432;SDS011;66752;48.576;8.876;2023-05-15T03:47:01;10.90;;;6.90;;
77432;SDS011;66752;48.576;8.876;2023-05-15T03:49:27;10.15;;;6.47;;
77432;SDS011;66752;48.576;8.876;2023-05-15T03:51:53;9.73;;;6.07;;
77432;SDS011;66752;48.576;8.876;2023-05-15T03:54:19;11.82;;;7.18;;
77432;SDS011;66752;48.576;8.876;2023-05-15T03:56:45;10.13;;;6.03;;
77432;SDS011;66752;48.576;8.876;2023-05-15T03:59:11;8.55;;;5.90;;
77432;SDS011;66752;48.576;8.876;2023-05-15T04:01:37;8.95;;;6.30;;
77432;SDS011;66752;48.576;8.876;2023-05-15T04:04:03;9.18;;;5.78;;
77432;SDS011;66752;48.576;8.876;2023-05-15T04:06:29;9.85;;;6.32;;
77432;SDS011;66752;48.576;8.876;2023-05-15T04:08:55;9.90;;;6.05;;
77432;SDS011;66752;48.576;8.876;2023-05-15T04:11:21;8.40;;;5.93;;
77432;SDS011;66752;48.576;8.876;2023-05-15T04:13:47;9.13;;;6.68;;
77432;SDS011;66752;48.576;8.876;2023-05-15T04:16:13;9.95;;;6.80;;
77432;SDS011;66752;48.576;8.876;2023-05-15T04:18:39;12.10;;;6.80;;
77432;SDS011;66752;48.576;8.876;2023-05-15T04:21:05;11.15;;;7.13;;
77432;SDS011;66752;48.576;8.876;2023-05-15T04:23:31;11.68;;;7.30;;
77432;SDS011;66752;48.576;8.876;2023-05-15T04:25:57;10.35;;;6.30;;
77432;SDS011;66752;48.576;8.876;2023-05-15T04:28:23;10.77;;;6.60;;
77432;SDS011;66752;48.576;8.876;2023-05-15T04:30:49;8.85;;;5.47;;
77432;SDS011;66752;48.576;8.876;2023-05-15T04:33:15;9.38;;;5.72;;
77432;SDS011;66752;48.576;8.876;2023-05-15T04:35:41;9.10;;;5.93;;
77432;SDS011;66752;48.576;8.876;2023-05-15T04:38:07;11.77;;;6.80;;
77432;SDS011;66752;48.576;8.876;2023-05-15T04:40:33;8.98;;;6.13;;
77432;SDS011;66752;48.576;8.876;2023-05-15T04:42:59;10.38;;;6.47;;
77432;SDS011;66752;48.576;8.876;2023-05-15T04:45:27;11.25;;;6.63;;
77432;SDS011;66752;48.576;8.876;2023-05-15T04:47:53;11.75;;;5.47;;
77432;SDS011;66752;48.576;8.876;2023-05-15T04:50:19;9.15;;;5.80;;
77432;SDS011;66752;48.576;8.876;2023-05-15T04:52:45;13.30;;;7.03;;
77432;SDS011;66752;48.576;8.876;2023-05-15T04:55:12;12.82;;;7.32;;
77432;SDS011;66752;48.576;8.876;2023-05-15T04:57:38;11.07;;;6.93;;
77432;SDS011;66752;48.576;8.876;2023-05-15T05:00:04;10.77;;;6.88;;
77432;SDS011;66752;48.576;8.876;2023-05-15T05:02:36;10.40;;;6.28;;
77432;SDS011;66752;48.576;8.876;2023-05-15T05:05:03;9.32;;;6.43;;
77432;SDS011;66752;48.576;8.876;2023-05-15T05:07:30;9.43;;;6.18;;
77432;SDS011;66752;48.576;8.876;2023-05-15T05:09:56;9.27;;;6.90;;
77432;SDS011;66752;48.576;8.876;2023-05-15T05:12:22;9.73;;;6.57;;
77432;SDS011;66752;48.576;8.876;2023-05-15T05:14:48;9.52;;;6.43;;
77432;SDS011;66752;48.576;8.876;2023-05-15T05:17:14;10.20;;;6.82;;
77432;SDS011;66752;48.576;8.876;2023-05-15T05:19:40;10.77;;;6.80;;
77432;SDS011;66752;48.576;8.876;2023-05-15T05:22:06;9.80;;;6.47;;
77432;SDS011;66752;48.576;8.876;2023-05-15T05:24:32;9.15;;;5.97;;
77432;SDS011;66752;48.576;8.876;2023-05-15T05:26:59;9.68;;;6.20;;
77432;SDS011;66752;48.576;8.876;2023-05-15T05:29:26;9.60;;;6.22;;
77432;SDS011;66752;48.576;8.876;2023-05-15T05:31:52;10.90;;;6.45;;
77432;SDS011;66752;48.576;8.876;2023-05-15T05:34:18;10.63;;;6.70;;
77432;SDS011;66752;48.576;8.876;2023-05-15T05:36:44;9.93;;;5.85;;
77432;SDS011;66752;48.576;8.876;2023-05-15T05:39:10;10.20;;;5.75;;
77432;SDS011;66752;48.576;8.876;2023-05-15T05:41:36;10.02;;;6.40;;
77432;SDS011;66752;48.576;8.876;2023-05-15T05:44:02;10.20;;;5.78;;
77432;SDS011;66752;48.576;8.876;2023-05-15T05:46:28;8.02;;;5.40;;
77432;SDS011;66752;48.576;8.876;2023-05-15T05:48:54;9.18;;;5.57;;
77432;SDS011;66752;48.576;8.876;2023-05-15T05:51:20;10.10;;;6.57;;
77432;SDS011;66752;48.576;8.876;2023-05-15T05:53:46;8.77;;;5.72;;
77432;SDS011;66752;48.576;8.876;2023-05-15T05:56:12;12.13;;;7.15;;
77432;SDS011;66752;48.576;8.876;2023-05-15T05:58:38;14.40;;;7.82;;
77432;SDS011;66752;48.576;8.876;2023-05-15T06:01:04;13.23;;;7.07;;
77432;SDS011;66752;48.576;8.876;2023-05-15T06:03:30;12.52;;;7.07;;
77432;SDS011;66752;48.576;8.876;2023-05-15T06:05:58;9.88;;;6.15;;
77432;SDS011;66752;48.576;8.876;2023-05-15T06:08:24;10.73;;;6.68;;
77432;SDS011;66752;48.576;8.876;2023-05-15T06:10:50;9.77;;;5.88;;
77432;SDS011;66752;48.576;8.876;2023-05-15T06:13:16;9.77;;;5.82;;
77432;SDS011;66752;48.576;8.876;2023-05-15T06:15:42;10.20;;;5.80;;
77432;SDS011;66752;48.576;8.876;2023-05-15T06:18:09;8.50;;;5.13;;
77432;SDS011;66752;48.576;8.876;2023-05-15T06:20:35;9.48;;;6.20;;
77432;SDS011;66752;48.576;8.876;2023-05-15T06:23:02;10.23;;;6.18;;
77432;SDS011;66752;48.576;8.876;2023-05-15T06:25:28;8.82;;;5.53;;
77432;SDS011;66752;48.576;8.876;2023-05-15T06:27:54;9.60;;;6.18;;
77432;SDS011;66752;48.576;8.876;2023-05-15T06:30:20;10.07;;;6.50;;
77432;SDS011;66752;48.576;8.876;2023-05-15T06:32:46;9.10;;;5.90;;
77432;SDS011;66752;48.576;8.876;2023-05-15T06:35:12;9.00;;;6.32;;
77432;SDS011;66752;48.576;8.876;2023-05-15T06:37:38;9.35;;;6.18;;
77432;SDS011;66752;48.576;8.876;2023-05-15T06:40:04;9.40;;;6.10;;
77432;SDS011;66752;48.576;8.876;2023-05-15T06:42:30;10.00;;;6.80;;
77432;SDS011;66752;48.576;8.876;2023-05-15T06:44:56;11.68;;;6.35;;
77432;SDS011;66752;48.576;8.876;2023-05-15T06:47:23;8.75;;;6.20;;
77432;SDS011;66752;48.576;8.876;2023-05-15T06:49:49;9.93;;;6.95;;
77432;SDS011;66752;48.576;8.876;2023-05-15T06:52:15;9.60;;;6.57;;
77432;SDS011;66752;48.576;8.876;2023-05-15T06:54:41;10.40;;;6.38;;
77432;SDS011;66752;48.576;8.876;2023-05-15T06:57:07;9.98;;;6.63;;
77432;SDS011;66752;48.576;8.876;2023-05-15T06:59:33;12.45;;;7.10;;
77432;SDS011;66752;48.576;8.876;2023-05-15T07:02:00;10.10;;;7.15;;
77432;SDS011;66752;48.576;8.876;2023-05-15T07:06:52;10.40;;;6.47;;
77432;SDS011;66752;48.576;8.876;2023-05-15T07:09:18;13.27;;;7.70;;
77432;SDS011;66752;48.576;8.876;2023-05-15T07:11:44;11.00;;;7.50;;
77432;SDS011;66752;48.576;8.876;2023-05-15T07:14:10;11.55;;;7.18;;
77432;SDS011;66752;48.576;8.876;2023-05-15T07:16:36;11.48;;;7.13;;
77432;SDS011;66752;48.576;8.876;2023-05-15T07:19:02;10.50;;;6.93;;
77432;SDS011;66752;48.576;8.876;2023-05-15T07:21:28;9.52;;;6.22;;
77432;SDS011;66752;48.576;8.876;2023-05-15T07:23:54;9.23;;;6.68;;
77432;SDS011;66752;48.576;8.876;2023-05-15T07:26:20;10.20;;;6.57;;
77432;SDS011;66752;48.576;8.876;2023-05-15T07:28:46;11.82;;;6.82;;
77432;SDS011;66752;48.576;8.876;2023-05-15T07:31:12;9.73;;;6.55;;
77432;SDS011;66752;48.576;8.876;2023-05-15T07:33:38;9.90;;;6.72;;
77432;SDS011;66752;48.576;8.876;2023-05-15T07:36:04;9.95;;;7.15;;
77432;SDS011;66752;48.576;8.876;2023-05-15T07:38:30;10.65;;;7.32;;
77432;SDS011;66752;48.576;8.876;2023-05-15T07:40:56;14.02;;;8.15;;
77432;SDS011;66752;48.576;8.876;2023-05-15T07:43:22;10.93;;;7.00;;
77432;SDS011;66752;48.576;8.876;2023-05-15T07:45:48;13.15;;;7.57;;
77432;SDS011;66752;48.576;8.876;2023-05-15T07:48:15;10.00;;;6.97;;
77432;SDS011;66752;48.576;8.876;2023-05-15T07:50:41;11.85;;;7.63;;
77432;SDS011;66752;48.576;8.876;2023-05-15T07:53:07;10.20;;;6.80;;
77432;SDS011;66752;48.576;8.876;2023-05-15T07:55:33;11.20;;;6.82;;
77432;SDS011;66752;48.576;8.876;2023-05-15T07:57:59;10.52;;;7.10;;
77432;SDS011;66752;48.576;8.876;2023-05-15T08:00:25;10.90;;;6.85;;
77432;SDS011;66752;48.576;8.876;2023-05-15T08:02:51;11.25;;;6.75;;
77432;SDS011;66752;48.576;8.876;2023-05-15T08:05:17;16.45;;;8.40;;
77432;SDS011;66752;48.576;8.876;2023-05-15T08:07:43;9.85;;;6.68;;
77432;SDS011;66752;48.576;8.876;2023-05-15T08:10:09;8.75;;;6.18;;
77432;SDS011;66752;48.576;8.876;2023-05-15T08:12:35;9.18;;;6.03;;
77432;SDS011;66752;48.576;8.876;2023-05-15T08:15:01;10.82;;;7.00;;
77432;SDS011;66752;48.576;8.876;2023-05-15T08:17:27;11.57;;;6.60;;
77432;SDS011;66752;48.576;8.876;2023-05-15T08:19:53;8.60;;;5.28;;
77432;SDS011;66752;48.576;8.876;2023-05-15T08:24:45;9.65;;;6.07;;
77432;SDS011;66752;48.576;8.876;2023-05-15T08:27:11;9.93;;;6.13;;
77432;SDS011;66752;48.576;8.876;2023-05-15T08:29:37;7.97;;;5.30;;
77432;SDS011;66752;48.576;8.876;2023-05-15T08:32:04;10.15;;;6.10;;
77432;SDS011;66752;48.576;8.876;2023-05-15T08:34:31;8.32;;;5.65;;
77432;SDS011;66752;48.576;8.876;2023-05-15T08:36:57;7.57;;;5.00;;
77432;SDS011;66752;48.576;8.876;2023-05-15T08:39:23;8.02;;;5.00;;
77432;SDS011;66752;48.576;8.876;2023-05-15T08:44:18;6.93;;;5.00;;
77432;SDS011;66752;48.576;8.876;2023-05-15T08:46:46;7.32;;;4.28;;
77432;SDS011;66752;48.576;8.876;2023-05-15T08:49:18;6.75;;;4.63;;
77432;SDS011;66752;48.576;8.876;2023-05-15T08:51:46;6.38;;;3.72;;
77432;SDS011;66752;48.576;8.876;2023-05-15T08:54:12;6.50;;;4.00;;
77432;SDS011;66752;48.576;8.876;2023-05-15T08:56:38;6.30;;;4.03;;
77432;SDS011;66752;48.576;8.876;2023-05-15T08:59:05;7.22;;;3.60;;
77432;SDS011;66752;48.576;8.876;2023-05-15T09:01:31;9.07;;;4.10;;
77432;SDS011;66752;48.576;8.876;2023-05-15T09:03:57;8.00;;;3.45;;
77432;SDS011;66752;48.576;8.876;2023-05-15T09:06:23;6.97;;;3.95;;
77432;SDS011;66752;48.576;8.876;2023-05-15T09:08:49;8.38;;;3.40;;
77432;SDS011;66752;48.576;8.876;2023-05-15T09:11:16;6.25;;;3.60;;
77432;SDS011;66752;48.576;8.876;2023-05-15T09:13:42;7.03;;;3.00;;
77432;SDS011;66752;48.576;8.876;2023-05-15T09:16:08;6.68;;;3.42;;
77432;SDS011;66752;48.576;8.876;2023-05-15T09:18:34;6.55;;;3.28;;
77432;SDS011;66752;48.576;8.876;2023-05-15T09:23:45;6.47;;;3.45;;
77432;SDS011;66752;48.576;8.876;2023-05-15T09:26:11;6.88;;;3.10;;
77432;SDS011;66752;48.576;8.876;2023-05-15T09:28:37;6.45;;;4.10;;
77432;SDS011;66752;48.576;8.876;2023-05-15T09:31:03;8.15;;;4.13;;
77432;SDS011;66752;48.576;8.876;2023-05-15T09:33:31;5.18;;;3.35;;
77432;SDS011;66752;48.576;8.876;2023-05-15T09:35:57;6.25;;;3.90;;
77432;SDS011;66752;48.576;8.876;2023-05-15T09:38:23;5.03;;;3.45;;
77432;SDS011;66752;48.576;8.876;2023-05-15T09:40:49;5.63;;;3.55;;
77432;SDS011;66752;48.576;8.876;2023-05-15T09:43:15;5.80;;;4.00;;
77432;SDS011;66752;48.576;8.876;2023-05-15T09:45:41;6.00;;;4.00;;
77432;SDS011;66752;48.576;8.876;2023-05-15T09:48:07;6.43;;;4.15;;
77432;SDS011;66752;48.576;8.876;2023-05-15T09:50:36;7.72;;;3.83;;
77432;SDS011;66752;48.576;8.876;2023-05-15T09:53:03;6.53;;;3.85;;
77432;SDS011;66752;48.576;8.876;2023-05-15T09:55:30;6.30;;;3.83;;
77432;SDS011;66752;48.576;8.876;2023-05-15T09:58:03;7.13;;;4.15;;
77432;SDS011;66752;48.576;8.876;2023-05-15T10:00:33;8.27;;;4.05;;
77432;SDS011;66752;48.576;8.876;2023-05-15T10:03:00;5.80;;;3.78;;
77432;SDS011;66752;48.576;8.876;2023-05-15T10:05:26;7.13;;;3.97;;
77432;SDS011;66752;48.576;8.876;2023-05-15T10:07:53;6.40;;;3.72;;
77432;SDS011;66752;48.576;8.876;2023-05-15T10:10:20;6.22;;;3.25;;
77432;SDS011;66752;48.576;8.876;2023-05-15T10:12:46;6.07;;;3.70;;
77432;SDS011;66752;48.576;8.876;2023-05-15T10:15:12;6.00;;;3.80;;
77432;SDS011;66752;48.576;8.876;2023-05-15T10:17:39;5.72;;;3.80;;
77432;SDS011;66752;48.576;8.876;2023-05-15T10:20:05;5.82;;;3.72;;
77432;SDS011;66752;48.576;8.876;2023-05-15T10:25:02;5.40;;;3.60;;
77432;SDS011;66752;48.576;8.876;2023-05-15T10:27:34;6.22;;;3.75;;
77432;SDS011;66752;48.576;8.876;2023-05-15T10:30:01;7.00;;;4.18;;
77432;SDS011;66752;48.576;8.876;2023-05-15T10:32:28;5.13;;;3.38;;
77432;SDS011;66752;48.576;8.876;2023-05-15T10:34:54;5.93;;;3.78;;
77432;SDS011;66752;48.576;8.876;2023-05-15T10:37:21;6.28;;;3.33;;
77432;SDS011;66752;48.576;8.876;2023-05-15T10:39:48;5.50;;;3.65;;
77432;SDS011;66752;48.576;8.876;2023-05-15T10:42:14;5.32;;;3.00;;
77432;SDS011;66752;48.576;8.876;2023-05-15T10:44:41;4.40;;;2.63;;
77432;SDS011;66752;48.576;8.876;2023-05-15T10:47:07;5.35;;;3.40;;
77432;SDS011;66752;48.576;8.876;2023-05-15T10:49:33;6.63;;;4.25;;
77432;SDS011;66752;48.576;8.876;2023-05-15T10:52:00;6.43;;;3.95;;
77432;SDS011;66752;48.576;8.876;2023-05-15T10:54:26;5.63;;;3.70;;
77432;SDS011;66752;48.576;8.876;2023-05-15T10:56:54;6.22;;;3.67;;
77432;SDS011;66752;48.576;8.876;2023-05-15T10:59:20;6.22;;;3.90;;
77432;SDS011;66752;48.576;8.876;2023-05-15T11:01:54;8.40;;;4.43;;
77432;SDS011;66752;48.576;8.876;2023-05-15T11:04:21;6.00;;;3.60;;
77432;SDS011;66752;48.576;8.876;2023-05-15T11:06:48;8.82;;;4.03;;
77432;SDS011;66752;48.576;8.876;2023-05-15T11:14:22;6.25;;;4.13;;
77432;SDS011;66752;48.576;8.876;2023-05-15T11:19:23;5.90;;;3.50;;
77432;SDS011;66752;48.576;8.876;2023-05-15T11:21:55;7.07;;;3.78;;
77432;SDS011;66752;48.576;8.876;2023-05-15T11:24:31;6.80;;;3.88;;
77432;SDS011;66752;48.576;8.876;2023-05-15T11:26:58;5.68;;;3.80;;
77432;SDS011;66752;48.576;8.876;2023-05-15T11:31:50;5.63;;;3.63;;
77432;SDS011;66752;48.576;8.876;2023-05-15T11:34:27;5.90;;;3.22;;
77432;SDS011;66752;48.576;8.876;2023-05-15T11:36:54;5.20;;;3.10;;
77432;SDS011;66752;48.576;8.876;2023-05-15T11:39:22;5.47;;;3.63;;
77432;SDS011;66752;48.576;8.876;2023-05-15T11:41:48;7.97;;;3.97;;
77432;SDS011;66752;48.576;8.876;2023-05-15T11:44:21;6.15;;;3.50;;
77432;SDS011;66752;48.576;8.876;2023-05-15T11:46:48;6.70;;;3.83;;
77432;SDS011;66752;48.576;8.876;2023-05-15T11:49:16;7.43;;;4.20;;
77432;SDS011;66752;48.576;8.876;2023-05-15T11:51:42;6.60;;;3.88;;
77432;SDS011;66752;48.576;8.876;2023-05-15T11:54:09;6.82;;;3.80;;
77432;SDS011;66752;48.576;8.876;2023-05-15T11:56:41;5.68;;;3.50;;
77432;SDS011;66752;48.576;8.876;2023-05-15T11:59:11;6.72;;;3.90;;
77432;SDS011;66752;48.576;8.876;2023-05-15T12:01:42;5.70;;;3.38;;
77432;SDS011;66752;48.576;8.876;2023-05-15T12:04:13;4.93;;;3.30;;
77432;SDS011;66752;48.576;8.876;2023-05-15T12:06:39;6.50;;;3.50;;
77432;SDS011;66752;48.576;8.876;2023-05-15T12:09:05;6.68;;;3.25;;
77432;SDS011;66752;48.576;8.876;2023-05-15T12:11:32;5.97;;;3.75;;
77432;SDS011;66752;48.576;8.876;2023-05-15T12:13:58;5.85;;;3.47;;
77432;SDS011;66752;48.576;8.876;2023-05-15T12:16:24;5.35;;;3.35;;
77432;SDS011;66752;48.576;8.876;2023-05-15T12:18:50;5.32;;;3.28;;
77432;SDS011;66752;48.576;8.876;2023-05-15T12:21:17;6.35;;;3.30;;
77432;SDS011;66752;48.576;8.876;2023-05-15T12:23:51;5.47;;;3.60;;
77432;SDS011;66752;48.576;8.876;2023-05-15T12:26:18;5.30;;;2.88;;
77432;SDS011;66752;48.576;8.876;2023-05-15T12:28:46;5.78;;;3.58;;
77432;SDS011;66752;48.576;8.876;2023-05-15T12:31:12;5.53;;;2.97;;
77432;SDS011;66752;48.576;8.876;2023-05-15T12:33:38;6.13;;;3.35;;
77432;SDS011;66752;48.576;8.876;2023-05-15T12:36:04;4.85;;;3.13;;
77432;SDS011;66752;48.576;8.876;2023-05-15T12:38:30;4.95;;;3.10;;
77432;SDS011;66752;48.576;8.876;2023-05-15T12:40:58;5.30;;;3.10;;
77432;SDS011;66752;48.576;8.876;2023-05-15T12:43:25;6.65;;;3.20;;
77432;SDS011;66752;48.576;8.876;2023-05-15T12:45:51;6.07;;;3.55;;
77432;SDS011;66752;48.576;8.876;2023-05-15T12:48:18;6.30;;;3.80;;
77432;SDS011;66752;48.576;8.876;2023-05-15T12:50:45;5.53;;;3.50;;
77432;SDS011;66752;48.576;8.876;2023-05-15T12:53:14;6.15;;;4.10;;
77432;SDS011;66752;48.576;8.876;2023-05-15T12:55:41;5.07;;;3.30;;
77432;SDS011;66752;48.576;8.876;2023-05-15T12:58:09;5.53;;;3.45;;
77432;SDS011;66752;48.576;8.876;2023-05-15T13:00:39;6.60;;;3.13;;
77432;SDS011;66752;48.576;8.876;2023-05-15T13:03:09;6.72;;;3.25;;
77432;SDS011;66752;48.576;8.876;2023-05-15T13:05:36;5.78;;;3.50;;
77432;SDS011;66752;48.576;8.876;2023-05-15T13:08:03;5.38;;;2.83;;
77432;SDS011;66752;48.576;8.876;2023-05-15T13:10:31;4.97;;;2.55;;
77432;SDS011;66752;48.576;8.876;2023-05-15T13:12:57;5.13;;;2.65;;
77432;SDS011;66752;48.576;8.876;2023-05-15T13:15:30;6.32;;;3.10;;
77432;SDS011;66752;48.576;8.876;2023-05-15T13:20:26;5.65;;;3.40;;
77432;SDS011;66752;48.576;8.876;2023-05-15T13:22:53;6.82;;;3.42;;
77432;SDS011;66752;48.576;8.876;2023-05-15T13:25:19;9.15;;;3.95;;
77432;SDS011;66752;48.576;8.876;2023-05-15T13:27:46;5.05;;;3.28;;
77432;SDS011;66752;48.576;8.876;2023-05-15T13:30:15;4.65;;;2.70;;
77432;SDS011;66752;48.576;8.876;2023-05-15T13:32:41;4.85;;;3.03;;
77432;SDS011;66752;48.576;8.876;2023-05-15T13:35:07;6.75;;;4.05;;
77432;SDS011;66752;48.576;8.876;2023-05-15T13:40:00;5.82;;;3.60;;
77432;SDS011;66752;48.576;8.876;2023-05-15T13:42:26;6.13;;;4.05;;
77432;SDS011;66752;48.576;8.876;2023-05-15T13:44:51;6.47;;;3.30;;
77432;SDS011;66752;48.576;8.876;2023-05-15T13:47:17;5.50;;;3.53;;
77432;SDS011;66752;48.576;8.876;2023-05-15T13:49:44;5.82;;;3.28;;
77432;SDS011;66752;48.576;8.876;2023-05-15T13:52:10;5.43;;;3.53;;
77432;SDS011;66752;48.576;8.876;2023-05-15T13:54:36;6.05;;;3.20;;
77432;SDS011;66752;48.576;8.876;2023-05-15T13:57:02;7.47;;;3.20;;
77432;SDS011;66752;48.576;8.876;2023-05-15T13:59:28;7.15;;;2.90;;
77432;SDS011;66752;48.576;8.876;2023-05-15T14:01:54;5.82;;;3.35;;
77432;SDS011;66752;48.576;8.876;2023-05-15T14:04:20;4.50;;;2.80;;
77432;SDS011;66752;48.576;8.876;2023-05-15T14:06:45;4.97;;;2.67;;
77432;SDS011;66752;48.576;8.876;2023-05-15T14:09:11;6.10;;;3.05;;
77432;SDS011;66752;48.576;8.876;2023-05-15T14:11:37;4.78;;;2.72;;
77432;SDS011;66752;48.576;8.876;2023-05-15T14:14:03;4.80;;;2.40;;
77432;SDS011;66752;48.576;8.876;2023-05-15T14:16:29;4.78;;;2.65;;
77432;SDS011;66752;48.576;8.876;2023-05-15T14:18:55;5.57;;;2.63;;
77432;SDS011;66752;48.576;8.876;2023-05-15T14:21:22;5.55;;;2.55;;
77432;SDS011;66752;48.576;8.876;2023-05-15T14:23:48;5.00;;;2.58;;
77432;SDS011;66752;48.576;8.876;2023-05-15T14:26:14;5.50;;;2.53;;
77432;SDS011;66752;48.576;8.876;2023-05-15T14:28:40;6.45;;;2.40;;
77432;SDS011;66752;48.576;8.876;2023-05-15T14:31:06;4.95;;;2.53;;
77432;SDS011;66752;48.576;8.876;2023-05-15T14:33:32;6.20;;;2.70;;
77432;SDS011;66752;48.576;8.876;2023-05-15T14:35:58;5.10;;;2.45;;
77432;SDS011;66752;48.576;8.876;2023-05-15T14:38:25;4.75;;;1.95;;
77432;SDS011;66752;48.576;8.876;2023-05-15T14:40:51;4.32;;;1.83;;
77432;SDS011;66752;48.576;8.876;2023-05-15T14:43:16;4.97;;;2.10;;
77432;SDS011;66752;48.576;8.876;2023-05-15T14:45:42;6.25;;;2.20;;
77432;SDS011;66752;48.576;8.876;2023-05-15T14:48:08;7.00;;;2.92;;
77432;SDS011;66752;48.576;8.876;2023-05-15T14:50:35;4.10;;;2.30;;
77432;SDS011;66752;48.576;8.876;2023-05-15T14:53:01;5.10;;;2.83;;
77432;SDS011;66752;48.576;8.876;2023-05-15T14:55:27;4.80;;;2.78;;
77432;SDS011;66752;48.576;8.876;2023-05-15T14:57:53;5.78;;;3.13;;
77432;SDS011;66752;48.576;8.876;2023-05-15T15:00:19;4.50;;;2.75;;
77432;SDS011;66752;48.576;8.876;2023-05-15T15:02:45;7.57;;;3.05;;
77432;SDS011;66752;48.576;8.876;2023-05-15T15:05:11;5.47;;;3.22;;
77432;SDS011;66752;48.576;8.876;2023-05-15T15:10:21;5.20;;;2.65;;
77432;SDS011;66752;48.576;8.876;2023-05-15T15:12:49;6.30;;;2.72;;
77432;SDS011;66752;48.576;8.876;2023-05-15T15:15:15;5.32;;;2.65;;
77432;SDS011;66752;48.576;8.876;2023-05-15T15:17:41;5.45;;;2.40;;
77432;SDS011;66752;48.576;8.876;2023-05-15T15:20:07;6.60;;;2.55;;
77432;SDS011;66752;48.576;8.876;2023-05-15T15:22:33;6.18;;;2.50;;
77432;SDS011;66752;48.576;8.876;2023-05-15T15:24:59;4.97;;;2.30;;
77432;SDS011;66752;48.576;8.876;2023-05-15T15:27:25;4.65;;;2.30;;
77432;SDS011;66752;48.576;8.876;2023-05-15T15:29:51;5.80;;;2.45;;